createdAt,value
2022-08-28T00:00:41.876Z,99664.41
2022-08-28T00:03:10.635Z,99684.03
2022-08-28T00:05:41.672Z,99669.63
2022-08-28T00:08:11.820Z,99678.03
2022-08-28T00:10:40.446Z,99675.25
2022-08-28T00:13:09.705Z,99688.34
2022-08-28T00:15:38.273Z,99677.44
2022-08-28T00:18:06.484Z,99690.66
2022-08-28T00:20:34.985Z,99690.16
2022-08-28T00:23:01.962Z,99675.16
2022-08-28T00:25:30.557Z,99686.78
2022-08-28T00:28:00.330Z,99695.13
2022-08-28T00:30:29.602Z,99699.13
2022-08-28T00:33:00.074Z,99690.16
2022-08-28T00:35:27.181Z,99693.06
2022-08-28T00:37:57.702Z,99681.19
2022-08-28T00:40:28.801Z,99687.84
2022-08-28T00:43:01.487Z,99692.47
2022-08-28T00:45:29.726Z,99705.53
2022-08-28T00:47:56.805Z,99698.56
2022-08-28T00:50:27.199Z,99704.69
2022-08-28T00:53:00.195Z,99711.63
2022-08-28T00:55:29.037Z,99700.28
2022-08-28T00:58:00.530Z,99661.91
2022-08-28T01:00:34.500Z,99686.78
2022-08-28T01:03:01.970Z,99679.84
2022-08-28T01:05:29.952Z,99702.44
2022-08-28T01:07:58.896Z,99668.50
2022-08-28T01:10:28.870Z,99695.84
2022-08-28T01:12:57.480Z,99678.38
2022-08-28T01:15:31.692Z,99626.66
2022-08-28T01:18:07.347Z,99695.84
2022-08-28T01:20:38.809Z,99635.28
2022-08-28T01:23:15.628Z,99689.09
2022-08-28T01:25:43.029Z,99636.00
2022-08-28T01:28:13.026Z,99655.84
2022-08-28T01:30:46.414Z,99625.56
2022-08-28T01:33:14.888Z,99679.41
2022-08-28T01:35:46.240Z,99615.00
2022-08-28T01:38:14.160Z,99628.94
2022-08-28T01:40:49.839Z,99675.75
2022-08-28T01:43:23.175Z,99678.28
2022-08-28T01:45:56.181Z,99675.59
2022-08-28T01:48:26.296Z,99639.56
2022-08-28T01:50:53.115Z,99671.94
2022-08-28T01:53:24.732Z,99658.41
2022-08-28T01:55:54.277Z,99689.25
2022-08-28T01:58:21.955Z,99687.72
2022-08-28T02:00:49.157Z,99690.09
2022-08-28T02:03:16.141Z,99684.75
2022-08-28T02:05:44.208Z,99640.66
2022-08-28T02:08:10.991Z,99690.97
2022-08-28T02:10:40.239Z,99688.59
2022-08-28T02:13:08.403Z,99675.19
2022-08-28T02:15:36.396Z,99685.47
2022-08-28T02:18:03.979Z,99694.47
2022-08-28T02:20:31.353Z,99674.63
2022-08-28T02:22:58.493Z,99702.94
2022-08-28T02:25:26.151Z,99700.84
2022-08-28T02:27:53.420Z,99672.75
2022-08-28T02:30:20.509Z,99685.84
2022-08-28T02:32:47.463Z,99691.09
2022-08-28T02:35:17.230Z,99684.44
2022-08-28T02:37:46.048Z,99679.66
2022-08-28T02:40:17.319Z,99679.38
2022-08-28T02:42:44.508Z,99675.13
2022-08-28T02:45:12.836Z,99689.22
2022-08-28T02:47:40.761Z,99688.38
2022-08-28T02:50:09.605Z,99682.63
2022-08-28T02:52:40.608Z,99597.25
2022-08-28T02:55:09.408Z,99679.38
2022-08-28T02:57:36.345Z,99677.94
2022-08-28T03:00:12.094Z,99670.06
2022-08-28T03:02:40.439Z,99681.31
2022-08-28T03:05:08.671Z,99648.91
2022-08-28T03:07:35.630Z,99675.69
2022-08-28T03:10:02.559Z,99670.59
2022-08-28T03:12:29.390Z,99690.19
2022-08-28T03:14:56.936Z,99650.59
2022-08-28T03:17:23.852Z,99688.50
2022-08-28T03:19:50.986Z,99684.41
2022-08-28T03:22:39.486Z,99698.22
2022-08-28T03:25:07.360Z,99675.91
2022-08-28T03:27:34.224Z,99690.59
2022-08-28T03:30:02.829Z,99674.22
2022-08-28T03:32:32.028Z,99699.34
2022-08-28T03:34:58.830Z,99690.88
2022-08-28T03:37:26.127Z,99713.69
2022-08-28T03:39:53.078Z,99714.09
2022-08-28T03:42:19.864Z,99704.53
2022-08-28T03:44:46.773Z,99628.66
2022-08-28T03:47:13.516Z,99711.69
2022-08-28T03:49:41.285Z,99679.69
2022-08-28T03:52:08.584Z,99693.50
2022-08-28T03:54:35.381Z,99699.97
2022-08-28T03:57:02.252Z,99702.94
2022-08-28T03:59:31.654Z,99710.84
2022-08-28T04:02:00.588Z,99702.38
2022-08-28T04:04:27.923Z,99702.25
2022-08-28T04:06:54.726Z,99697.75
2022-08-28T04:09:21.528Z,99702.38
2022-08-28T04:11:48.419Z,99711.44
2022-08-28T04:14:15.120Z,99718.19
2022-08-28T04:16:42.053Z,99688.31
2022-08-28T04:19:08.890Z,99705.09
2022-08-28T04:21:35.600Z,99715.81
2022-08-28T04:24:04.922Z,99690.13
2022-08-28T04:26:36.714Z,99719.53
2022-08-28T04:29:04.825Z,99723.38
2022-08-28T04:31:32.903Z,99717.72
2022-08-28T04:34:05.220Z,99732.25
2022-08-28T04:36:33.938Z,99738.88
2022-08-28T04:39:01.638Z,99739.34
2022-08-28T04:41:28.863Z,99718.75
2022-08-28T04:43:57.515Z,99734.97
2022-08-28T04:46:25.987Z,99741.28
2022-08-28T04:48:53.212Z,99740.88
2022-08-28T04:51:20.424Z,99749.75
2022-08-28T04:53:47.276Z,99742.59
2022-08-28T04:56:15.231Z,99760.22
2022-08-28T04:58:43.411Z,99763.75
2022-08-28T05:01:19.595Z,99749.25
2022-08-28T05:03:48.119Z,99762.97
2022-08-28T05:06:16.476Z,99759.72
2022-08-28T05:08:43.373Z,99771.84
2022-08-28T05:11:33.260Z,99769.47
2022-08-28T05:14:19.016Z,99783.25
2022-08-28T05:16:52.821Z,99785.94
2022-08-28T05:19:21.454Z,99768.03
2022-08-28T05:21:48.401Z,99782.81
2022-08-28T05:24:15.533Z,99776.34
2022-08-28T05:26:42.616Z,99786.50
2022-08-28T05:29:10.692Z,99771.13
2022-08-28T05:31:39.357Z,99786.09
2022-08-28T05:34:07.016Z,99785.91
2022-08-28T05:36:36.454Z,99770.09
2022-08-28T05:39:07.045Z,99788.81
2022-08-28T05:41:34.280Z,99763.44
2022-08-28T05:44:04.892Z,99792.69
2022-08-28T05:46:32.001Z,99748.13
2022-08-28T05:49:00.589Z,99787.69
2022-08-28T05:51:28.711Z,99798.28
2022-08-28T05:53:57.841Z,99803.78
2022-08-28T05:56:34.754Z,99794.69
2022-08-28T05:59:02.975Z,99742.78
2022-08-28T06:01:32.556Z,99799.44
2022-08-28T06:04:00.807Z,99808.03
2022-08-28T06:06:31.332Z,99772.47
2022-08-28T06:09:01.508Z,99808.88
2022-08-28T06:11:30.720Z,99786.38
2022-08-28T06:14:02.975Z,99808.56
2022-08-28T06:16:32.910Z,99752.84
2022-08-28T06:19:00.696Z,99766.50
2022-08-28T06:21:29.321Z,99741.31
2022-08-28T06:23:56.362Z,99757.84
2022-08-28T06:26:24.000Z,99764.00
2022-08-28T06:28:53.184Z,99807.56
2022-08-28T06:31:23.315Z,99801.97
2022-08-28T06:33:57.941Z,99826.81
2022-08-28T06:36:28.012Z,99822.13
2022-08-28T06:38:58.246Z,99799.22
2022-08-28T06:41:25.518Z,99823.81
2022-08-28T06:43:52.315Z,99824.97
2022-08-28T06:46:19.291Z,99835.28
2022-08-28T06:48:46.117Z,99820.34
2022-08-28T06:51:13.864Z,99834.16
2022-08-28T06:53:43.133Z,99801.97
2022-08-28T06:56:26.215Z,99813.91
2022-08-28T06:58:55.826Z,99827.81
2022-08-28T07:01:24.498Z,99837.41
2022-08-28T07:03:53.981Z,99813.16
2022-08-28T07:06:22.923Z,99832.38
2022-08-28T07:08:51.113Z,99831.91
2022-08-28T07:11:26.446Z,99837.00
2022-08-28T07:13:54.288Z,99823.09
2022-08-28T07:16:23.668Z,99836.66
2022-08-28T07:18:50.480Z,99833.81
2022-08-28T07:21:17.895Z,99840.56
2022-08-28T07:23:46.276Z,99798.06
2022-08-28T07:26:15.955Z,99813.22
2022-08-28T07:28:43.213Z,99829.88
2022-08-28T07:31:19.139Z,99848.56
2022-08-28T07:33:46.524Z,99847.09
2022-08-28T07:36:29.769Z,99780.66
2022-08-28T07:38:58.491Z,99854.47
2022-08-28T07:41:28.248Z,99853.41
2022-08-28T07:44:13.513Z,99858.31
2022-08-28T07:46:41.243Z,99858.53
2022-08-28T07:49:08.862Z,99862.22
2022-08-28T07:51:36.621Z,99865.94
2022-08-28T07:54:04.768Z,99869.47
2022-08-28T07:56:32.215Z,99855.19
2022-08-28T07:59:00.405Z,99867.88
2022-08-28T08:01:28.967Z,99863.91
2022-08-28T08:04:01.926Z,99857.97
2022-08-28T08:06:33.910Z,99796.78
2022-08-28T08:09:02.232Z,99869.28
2022-08-28T08:11:32.481Z,99863.78
2022-08-28T08:14:05.665Z,99859.56
2022-08-28T08:16:40.599Z,99860.59
2022-08-28T08:19:14.176Z,99859.22
2022-08-28T08:21:47.006Z,99867.03
2022-08-28T08:24:20.962Z,99862.81
2022-08-28T08:26:57.376Z,99854.88
2022-08-28T08:29:28.218Z,99874.31
2022-08-28T08:32:05.207Z,99872.91
2022-08-28T08:34:35.400Z,99866.59
2022-08-28T08:37:02.460Z,99841.78
2022-08-28T08:39:29.375Z,99871.50
2022-08-28T08:42:00.924Z,99879.50
2022-08-28T08:44:34.211Z,99881.81
2022-08-28T08:47:17.005Z,99874.06
2022-08-28T08:49:57.300Z,99883.28
2022-08-28T08:52:42.675Z,99884.41
2022-08-28T08:55:24.696Z,99879.34
2022-08-28T08:58:14.585Z,99874.06
2022-08-28T09:01:07.794Z,99875.66
2022-08-28T09:04:31.839Z,99882.22
2022-08-28T09:07:02.153Z,99861.88
2022-08-28T09:09:42.613Z,99848.16
2022-08-28T09:12:23.086Z,99877.59
2022-08-28T09:15:05.566Z,99864.75
2022-08-28T09:17:42.643Z,99871.88
2022-08-28T09:20:12.740Z,99874.25
2022-08-28T09:22:44.553Z,99869.28
2022-08-28T09:25:32.332Z,99861.59
2022-08-28T09:28:07.544Z,99865.69
2022-08-28T09:30:35.924Z,99855.91
2022-08-28T09:33:02.831Z,99881.59
2022-08-28T09:35:35.689Z,99846.56
2022-08-28T09:38:27.538Z,99872.41
2022-08-28T09:41:29.087Z,99877.06
2022-08-28T09:43:57.108Z,99864.06
2022-08-28T09:46:29.661Z,99866.13
2022-08-28T09:49:14.723Z,99867.47
2022-08-28T09:51:42.078Z,99872.13
2022-08-28T09:54:18.507Z,99873.00
2022-08-28T09:56:45.872Z,99852.66
2022-08-28T09:59:15.137Z,99865.59
2022-08-28T10:01:44.763Z,99865.47
2022-08-28T10:04:34.166Z,99866.09
2022-08-28T10:07:13.000Z,99852.09
2022-08-28T10:09:48.065Z,99833.25
2022-08-28T10:12:21.365Z,99868.53
2022-08-28T10:15:09.539Z,99856.78
2022-08-28T10:17:51.834Z,99860.78
2022-08-28T10:20:51.228Z,99857.84
2022-08-28T10:23:24.786Z,99850.09
2022-08-28T10:26:19.236Z,99858.91
2022-08-28T10:28:51.976Z,99857.84
2022-08-28T10:31:37.292Z,99842.19
2022-08-28T10:34:18.147Z,99844.44
2022-08-28T10:36:52.191Z,99831.66
2022-08-28T10:39:48.115Z,99812.56
2022-08-28T10:42:25.084Z,99831.66
2022-08-28T10:45:08.781Z,99828.50
2022-08-28T10:47:39.252Z,99824.75
2022-08-28T10:50:18.631Z,99824.75
2022-08-28T10:52:52.299Z,99838.72
2022-08-28T10:55:23.787Z,99841.81
2022-08-28T10:57:58.292Z,99835.44
2022-08-28T11:00:27.380Z,99839.94
2022-08-28T11:02:57.529Z,99833.41
2022-08-28T11:05:36.041Z,99814.78
2022-08-28T11:08:07.173Z,99831.34
2022-08-28T11:10:36.712Z,99837.31
2022-08-28T11:13:06.378Z,99837.53
2022-08-28T11:15:37.211Z,99839.56
2022-08-28T11:18:16.491Z,99838.78
2022-08-28T11:21:21.446Z,99839.22
2022-08-28T11:24:00.095Z,99826.34
2022-08-28T11:26:41.572Z,99814.34
2022-08-28T11:29:08.740Z,99804.59
2022-08-28T11:31:38.680Z,99824.13
2022-08-28T11:34:06.391Z,99822.22
2022-08-28T11:36:33.200Z,99825.91
2022-08-28T11:39:26.465Z,99802.41
2022-08-28T11:42:11.561Z,99829.38
2022-08-28T11:44:46.556Z,99816.19
2022-08-28T11:47:44.812Z,99794.94
2022-08-28T11:50:18.943Z,99804.19
2022-08-28T11:53:03.940Z,99812.47
2022-08-28T11:55:31.059Z,99811.50
2022-08-28T11:58:16.232Z,99806.69
2022-08-28T12:00:52.016Z,99815.59
2022-08-28T12:03:40.887Z,99796.94
2022-08-28T12:06:08.487Z,99815.56
2022-08-28T12:08:53.409Z,99808.19
2022-08-28T12:11:42.090Z,99809.66
2022-08-28T12:14:08.820Z,99806.13
2022-08-28T12:17:03.835Z,99810.47
2022-08-28T12:19:56.109Z,99803.41
2022-08-28T12:22:44.191Z,99776.47
2022-08-28T12:25:23.334Z,99795.59
2022-08-28T12:27:50.785Z,99790.78
2022-08-28T12:30:42.334Z,99780.66
2022-08-28T12:33:32.076Z,99766.84
2022-08-28T12:36:10.211Z,99784.75
2022-08-28T12:38:37.792Z,99778.31
2022-08-28T12:41:04.597Z,99740.72
2022-08-28T12:43:43.254Z,99756.13
2022-08-28T12:46:24.570Z,99753.34
2022-08-28T12:48:54.556Z,99767.78
2022-08-28T12:51:23.516Z,99765.78
2022-08-28T12:53:51.992Z,99767.31
2022-08-28T12:56:21.360Z,99767.78
2022-08-28T12:58:49.852Z,99736.81
2022-08-28T13:01:28.533Z,99767.19
2022-08-28T13:03:57.616Z,99756.75
2022-08-28T13:06:29.639Z,99751.69
2022-08-28T13:09:18.296Z,99733.88
2022-08-28T13:11:49.223Z,99712.63
2022-08-28T13:14:46.266Z,99739.63
2022-08-28T13:17:15.149Z,99733.72
2022-08-28T13:19:41.822Z,99731.75
2022-08-28T13:22:33.488Z,99734.16
2022-08-28T13:25:02.400Z,99729.13
2022-08-28T13:27:29.216Z,99728.38
2022-08-28T13:30:00.822Z,99721.91
2022-08-28T13:32:29.981Z,99715.75
2022-08-28T13:35:16.928Z,99716.34
2022-08-28T13:37:48.267Z,99717.44
2022-08-28T13:40:53.292Z,99715.34
2022-08-28T13:43:11.373Z,99686.41
2022-08-28T13:45:43.189Z,99703.31
2022-08-28T13:48:15.705Z,99713.72
2022-08-28T13:50:46.879Z,99695.41
2022-08-28T13:53:16.745Z,99673.84
2022-08-28T13:55:44.218Z,99713.41
2022-08-28T13:58:11.450Z,99690.22
2022-08-28T14:00:41.901Z,99712.66
2022-08-28T14:03:27.104Z,99684.81
2022-08-28T14:05:54.589Z,99712.84
2022-08-28T14:08:21.730Z,99664.34
2022-08-28T14:10:49.049Z,99707.56
2022-08-28T14:13:16.002Z,99691.00
2022-08-28T14:15:43.032Z,99669.94
2022-08-28T14:18:09.791Z,99714.56
2022-08-28T14:20:38.143Z,99711.56
2022-08-28T14:23:04.904Z,99697.13
2022-08-28T14:25:35.906Z,99683.03
2022-08-28T14:28:05.766Z,99694.94
2022-08-28T14:30:32.833Z,99697.56
2022-08-28T14:32:59.577Z,99691.94
2022-08-28T14:35:26.719Z,99700.50
2022-08-28T14:37:53.465Z,99664.19
2022-08-28T14:40:20.340Z,99693.06
2022-08-28T14:42:47.144Z,99676.25
2022-08-28T14:45:14.035Z,99691.94
2022-08-28T14:47:41.024Z,99660.28
2022-08-28T14:50:08.318Z,99696.19
2022-08-28T14:52:35.581Z,99688.38
2022-08-28T14:55:02.363Z,99678.91
2022-08-28T14:57:29.375Z,99686.25
2022-08-28T14:59:56.155Z,99684.28
2022-08-28T15:02:22.889Z,99662.75
2022-08-28T15:04:49.599Z,99667.25
2022-08-28T15:07:16.375Z,99677.16
2022-08-28T15:09:43.641Z,99678.16
2022-08-28T15:12:11.323Z,99675.41
2022-08-28T15:14:38.324Z,99665.38
2022-08-28T15:17:05.554Z,99656.38
2022-08-28T15:19:32.971Z,99675.09
2022-08-28T15:22:00.269Z,99672.31
2022-08-28T15:24:31.038Z,99669.53
2022-08-28T15:26:59.595Z,99662.19
2022-08-28T15:29:30.090Z,99663.25
2022-08-28T15:31:57.374Z,99666.47
2022-08-28T15:34:26.839Z,99640.63
2022-08-28T15:36:56.001Z,99677.53
2022-08-28T15:39:44.047Z,99647.31
2022-08-28T15:42:11.605Z,99684.25
2022-08-28T15:44:39.058Z,99684.63
2022-08-28T15:47:06.871Z,99693.91
2022-08-28T15:49:43.443Z,99681.97
2022-08-28T15:52:15.801Z,99695.47
2022-08-28T15:54:43.046Z,99657.75
2022-08-28T15:57:09.815Z,99712.00
2022-08-28T15:59:48.532Z,99709.09
2022-08-28T16:02:16.325Z,99676.63
2022-08-28T16:04:43.229Z,99678.72
2022-08-28T16:07:09.975Z,99683.31
2022-08-28T16:09:36.778Z,99698.41
2022-08-28T16:12:03.827Z,99700.22
2022-08-28T16:14:32.832Z,99688.88
2022-08-28T16:16:59.479Z,99718.81
2022-08-28T16:19:33.117Z,99718.78
2022-08-28T16:22:00.376Z,99679.81
2022-08-28T16:24:27.324Z,99714.53
2022-08-28T16:26:54.270Z,99714.84
2022-08-28T16:29:21.074Z,99714.94
2022-08-28T16:31:48.917Z,99712.13
2022-08-28T16:34:16.015Z,99724.50
2022-08-28T16:36:48.232Z,99731.13
2022-08-28T16:39:15.377Z,99742.13
2022-08-28T16:41:43.239Z,99732.25
2022-08-28T16:44:10.195Z,99745.00
2022-08-28T16:46:37.153Z,99673.50
2022-08-28T16:49:04.354Z,99747.13
2022-08-28T16:51:31.679Z,99737.16
2022-08-28T16:53:58.644Z,99750.72
2022-08-28T16:56:26.645Z,99752.63
2022-08-28T16:58:53.515Z,99762.78
2022-08-28T17:01:24.222Z,99748.22
2022-08-28T17:03:52.576Z,99738.75
2022-08-28T17:06:26.212Z,99735.88
2022-08-28T17:08:56.848Z,99741.69
2022-08-28T17:11:26.086Z,99758.13
2022-08-28T17:13:53.194Z,99755.84
2022-08-28T17:16:24.259Z,99769.56
2022-08-28T17:18:52.560Z,99739.16
2022-08-28T17:21:39.479Z,99771.56
2022-08-28T17:24:09.942Z,99760.59
2022-08-28T17:26:36.708Z,99764.50
2022-08-28T17:29:04.715Z,99774.00
2022-08-28T17:31:32.186Z,99771.47
2022-08-28T17:33:59.079Z,99766.00
2022-08-28T17:36:33.108Z,99755.97
2022-08-28T17:39:09.845Z,99768.69
2022-08-28T17:41:36.713Z,99765.84
2022-08-28T17:44:05.152Z,99764.25
2022-08-28T17:46:37.519Z,99772.72
2022-08-28T17:49:06.500Z,99790.59
2022-08-28T17:51:43.771Z,99797.06
2022-08-28T17:54:21.471Z,99776.84
2022-08-28T17:56:49.555Z,99804.66
2022-08-28T17:59:16.648Z,99769.75
2022-08-28T18:01:45.072Z,99771.78
2022-08-28T18:04:13.454Z,99777.00
2022-08-28T18:06:40.276Z,99782.38
2022-08-28T18:09:09.217Z,99813.59
2022-08-28T18:11:36.527Z,99801.22
2022-08-28T18:14:04.467Z,99803.22
2022-08-28T18:16:33.167Z,99797.84
2022-08-28T18:19:01.516Z,99819.22
2022-08-28T18:21:30.494Z,99836.88
2022-08-28T18:23:58.048Z,99832.03
2022-08-28T18:26:25.055Z,99844.44
2022-08-28T18:28:52.863Z,99857.94
2022-08-28T18:31:19.958Z,99846.44
2022-08-28T18:33:47.190Z,99868.91
2022-08-28T18:36:16.518Z,99867.69
2022-08-28T18:38:44.592Z,99871.22
2022-08-28T18:41:12.345Z,99878.34
2022-08-28T18:43:39.433Z,99864.47
2022-08-28T18:46:09.290Z,99881.53
2022-08-28T18:48:38.196Z,99884.56
2022-08-28T18:51:12.848Z,99879.81
2022-08-28T18:53:42.411Z,99887.44
2022-08-28T18:56:12.309Z,99891.97
2022-08-28T18:58:40.591Z,99900.72
2022-08-28T19:01:08.480Z,99811.41
2022-08-28T19:03:36.171Z,99852.75
2022-08-28T19:06:03.200Z,99871.16
2022-08-28T19:08:30.462Z,99891.91
2022-08-28T19:10:57.204Z,99904.53
2022-08-28T19:13:23.951Z,99863.84
2022-08-28T19:15:52.702Z,99884.59
2022-08-28T19:18:19.821Z,99861.00
2022-08-28T19:20:46.828Z,99911.94
2022-08-28T19:23:17.410Z,99887.78
2022-08-28T19:25:45.144Z,99857.91
2022-08-28T19:28:11.920Z,99910.72
2022-08-28T19:30:38.873Z,99875.06
2022-08-28T19:33:06.139Z,99910.66
2022-08-28T19:35:33.919Z,99932.09
2022-08-28T19:38:01.581Z,99911.69
2022-08-28T19:40:29.070Z,99910.78
2022-08-28T19:42:56.066Z,99927.69
2022-08-28T19:45:23.270Z,99925.63
2022-08-28T19:47:50.075Z,99919.03
2022-08-28T19:50:17.249Z,99928.94
2022-08-28T19:52:44.884Z,99884.31
2022-08-28T19:55:18.570Z,99948.28
2022-08-28T19:57:47.014Z,99929.13
2022-08-28T20:00:15.556Z,99916.25
2022-08-28T20:02:42.393Z,99920.59
2022-08-28T20:05:11.012Z,99953.44
2022-08-28T20:07:38.069Z,99876.19
2022-08-28T20:10:05.851Z,99915.66
2022-08-28T20:12:32.593Z,99937.28
2022-08-28T20:15:03.275Z,99939.28
2022-08-28T20:17:30.558Z,99939.94
2022-08-28T20:20:02.476Z,99974.84
2022-08-28T20:22:31.916Z,99956.38
2022-08-28T20:24:59.539Z,99954.38
2022-08-28T20:27:26.810Z,99981.28
2022-08-28T20:29:53.812Z,99960.44
2022-08-28T20:32:20.755Z,99942.22
2022-08-28T20:34:47.490Z,99957.75
2022-08-28T20:37:14.355Z,99974.50
2022-08-28T20:39:41.805Z,99946.06
2022-08-28T20:42:12.493Z,99952.72
2022-08-28T20:44:39.783Z,99962.78
2022-08-28T20:47:06.919Z,99970.69
2022-08-28T20:49:39.312Z,99931.38
2022-08-28T20:52:06.915Z,99959.22
2022-08-28T20:54:38.537Z,99964.88
2022-08-28T20:57:09.515Z,99973.75
2022-08-28T20:59:40.090Z,99973.75
2022-08-28T21:02:28.650Z,99967.00
2022-08-28T21:04:56.225Z,99971.97
2022-08-28T21:07:24.998Z,99978.50
2022-08-28T21:10:04.145Z,99971.59
2022-08-28T21:12:33.487Z,99927.06
2022-08-28T21:15:00.453Z,99976.28
2022-08-28T21:17:29.457Z,99959.97
2022-08-28T21:20:00.433Z,99952.06
2022-08-28T21:22:27.326Z,99962.81
2022-08-28T21:24:54.221Z,99954.09
2022-08-28T21:27:20.979Z,99973.88
2022-08-28T21:29:47.912Z,99965.25
2022-08-28T21:32:14.936Z,99968.91
2022-08-28T21:34:41.702Z,99977.50
2022-08-28T21:37:08.469Z,99961.00
2022-08-28T21:39:35.536Z,99967.38
2022-08-28T21:42:03.501Z,99963.31
2022-08-28T21:44:30.238Z,99972.44
2022-08-28T21:47:00.692Z,99979.22
2022-08-28T21:49:27.867Z,99972.47
2022-08-28T21:51:54.863Z,99980.38
2022-08-28T21:54:23.146Z,99998.56
2022-08-28T21:56:50.581Z,99985.72
2022-08-28T21:59:33.018Z,99957.22
2022-08-28T22:02:05.054Z,99954.47
2022-08-28T22:04:32.070Z,99992.75
2022-08-28T22:06:58.954Z,99987.13
2022-08-28T22:09:25.733Z,99987.69
2022-08-28T22:11:52.461Z,99948.09
2022-08-28T22:14:19.241Z,99992.47
2022-08-28T22:16:46.508Z,99991.81
2022-08-28T22:19:13.295Z,99967.03
2022-08-28T22:21:58.796Z,100003.81
2022-08-28T22:24:25.565Z,99989.75
2022-08-28T22:26:53.202Z,99998.81
2022-08-28T22:29:24.885Z,99999.25
2022-08-28T22:31:52.680Z,100013.00
2022-08-28T22:34:19.602Z,100009.19
2022-08-28T22:36:46.349Z,99993.75
2022-08-28T22:39:13.156Z,99974.84
2022-08-28T22:41:40.467Z,99949.28
2022-08-28T22:44:07.816Z,100013.84
2022-08-28T22:46:35.995Z,99999.56
2022-08-28T22:49:02.903Z,100011.03
2022-08-28T22:51:30.179Z,99972.91
2022-08-28T22:53:56.996Z,100001.41
2022-08-28T22:56:23.971Z,99993.25
2022-08-28T22:58:50.827Z,99977.56
2022-08-28T23:01:23.293Z,100013.56
2022-08-28T23:03:50.479Z,100020.91
2022-08-28T23:06:17.825Z,100025.41
2022-08-28T23:08:44.607Z,100004.47
2022-08-28T23:11:11.686Z,99991.47
2022-08-28T23:13:38.954Z,100000.09
2022-08-28T23:16:06.317Z,100002.75
2022-08-28T23:18:51.679Z,100040.66
2022-08-28T23:21:23.855Z,100038.50
2022-08-28T23:23:53.477Z,100034.19
2022-08-28T23:26:20.235Z,100038.88
2022-08-28T23:28:47.982Z,100032.25
2022-08-28T23:31:14.851Z,100030.34
2022-08-28T23:33:41.768Z,100051.09
2022-08-28T23:36:08.946Z,100035.31
2022-08-28T23:38:37.557Z,100050.22
2022-08-28T23:41:07.975Z,100043.78
2022-08-28T23:43:35.332Z,100052.03
2022-08-28T23:46:02.223Z,99980.88
2022-08-28T23:48:29.491Z,100032.03
2022-08-28T23:50:56.230Z,100042.69
2022-08-28T23:53:23.058Z,100045.84
2022-08-28T23:55:50.242Z,100066.69
2022-08-28T23:58:18.336Z,100059.09
